Time;durP1;ratioP1;P1;durP2;ratioP2;P2;SDS_P1;SDS_P2;PMS_P1;PMS_P2;Temp;Humidity;BMP_temperature;BMP_pressure;BME280_temperature;BME280_humidity;BME280_pressure;Samples;Min_cycle;Max_cycle;Signal;HPM_P1;HPM_P2
2021/07/23 00:01:04;;;;;;;;;;;15.80;99.90;;;;;;5093891;28;19935;-58
2021/07/23 00:04:18;;;;;;;;;;;15.80;99.90;;;;;;5101309;28;19931;-58
2021/07/23 00:07:07;;;;;;;;;;;15.70;99.90;;;;;;5096090;28;19931;-58
2021/07/23 00:09:55;;;;;;;;;;;15.60;99.90;;;;;;5101194;28;19924;-58
2021/07/23 00:12:45;;;;;;;;;;;15.50;99.90;;;;;;5098509;28;20450;-60
2021/07/23 00:15:34;;;;;;;;;;;15.30;99.90;;;;;;5094564;28;19927;-58
2021/07/23 00:18:22;;;;;;;;;;;15.30;99.90;;;;;;5100082;28;20383;-58
2021/07/23 00:21:11;;;;;;;;;;;15.30;99.90;;;;;;5100415;28;20307;-58
2021/07/23 00:23:59;;;;;;;;;;;15.20;99.90;;;;;;5099397;28;20363;-60
2021/07/23 00:26:51;;;;;;;;;;;15.20;99.90;;;;;;5101734;28;19930;-58
2021/07/23 00:29:45;;;;;;;;;;;15.10;99.90;;;;;;5104235;28;19931;-58
2021/07/23 00:32:35;;;;;;;;;;;15.10;99.90;;;;;;5095304;28;19928;-58
2021/07/23 00:35:24;;;;;;;;;;;15.10;99.90;;;;;;5097234;28;20018;-57
2021/07/23 00:38:15;;;;;;;;;;;15.00;99.90;;;;;;5096855;28;20292;-58
2021/07/23 00:41:07;;;;;;;;;;;15.10;99.90;;;;;;5093269;28;20408;-59
2021/07/23 00:43:56;;;;;;;;;;;15.10;99.90;;;;;;5102052;28;20222;-59
2021/07/23 00:46:48;;;;;;;;;;;15.00;99.90;;;;;;5094650;28;19955;-59
2021/07/23 00:49:38;;;;;;;;;;;15.00;99.90;;;;;;5093508;28;19960;-59
2021/07/23 00:52:27;;;;;;;;;;;14.90;99.90;;;;;;5107998;28;19935;-59
2021/07/23 00:55:15;;;;;;;;;;;14.80;99.90;;;;;;5104204;28;20332;-59
2021/07/23 00:58:05;;;;;;;;;;;14.70;99.90;;;;;;5104171;28;19954;-58
2021/07/23 01:00:57;;;;;;;;;;;14.70;99.90;;;;;;5092973;28;20025;-59
2021/07/23 01:04:16;;;;;;;;;;;14.60;99.90;;;;;;5106129;28;20397;-60
2021/07/23 01:07:06;;;;;;;;;;;14.60;99.90;;;;;;5102342;28;19943;-58
2021/07/23 01:09:56;;;;;;;;;;;14.60;99.90;;;;;;5094543;28;19953;-58
2021/07/23 01:13:10;;;;;;;;;;;14.60;99.90;;;;;;5113009;28;20279;-61
2021/07/23 01:16:02;;;;;;;;;;;14.60;99.90;;;;;;5106804;28;19953;-59
2021/07/23 01:18:50;;;;;;;;;;;14.60;99.90;;;;;;5125049;28;19973;-58
2021/07/23 01:21:42;;;;;;;;;;;14.60;99.90;;;;;;5112235;28;19968;-58
2021/07/23 01:24:34;;;;;;;;;;;14.50;99.90;;;;;;5129767;28;19926;-60
2021/07/23 01:27:27;;;;;;;;;;;14.50;99.90;;;;;;5127818;28;19955;-59
2021/07/23 01:30:23;;;;;;;;;;;14.30;99.90;;;;;;5129190;28;19954;-58
2021/07/23 01:33:20;;;;;;;;;;;14.30;99.90;;;;;;5119088;28;20001;-59
2021/07/23 01:36:10;;;;;;;;;;;14.20;99.90;;;;;;5122584;28;19988;-61
2021/07/23 01:39:09;;;;;;;;;;;14.30;99.90;;;;;;5114253;28;19972;-59
2021/07/23 01:42:00;;;;;;;;;;;14.30;99.90;;;;;;5112650;28;19942;-60
2021/07/23 01:44:51;;;;;;;;;;;14.20;99.90;;;;;;5120467;28;19987;-59
2021/07/23 01:47:41;;;;;;;;;;;14.20;99.90;;;;;;5114195;28;19943;-58
2021/07/23 01:50:30;;;;;;;;;;;14.20;99.90;;;;;;5116739;28;19924;-59
2021/07/23 01:53:18;;;;;;;;;;;14.10;99.90;;;;;;5112998;28;19945;-59
2021/07/23 01:56:32;;;;;;;;;;;14.10;99.90;;;;;;5121899;28;19931;-58
2021/07/23 01:59:29;;;;;;;;;;;14.10;99.90;;;;;;5112296;28;19924;-59
2021/07/23 02:02:19;;;;;;;;;;;14.10;99.90;;;;;;5106170;28;19928;-58
2021/07/23 02:05:10;;;;;;;;;;;14.20;99.90;;;;;;5115161;28;19924;-59
2021/07/23 02:07:59;;;;;;;;;;;14.10;99.90;;;;;;5096002;28;19924;-60
2021/07/23 02:10:48;;;;;;;;;;;14.10;99.90;;;;;;5103895;28;19931;-59
2021/07/23 02:13:38;;;;;;;;;;;14.10;99.90;;;;;;5093536;28;20308;-58
2021/07/23 02:16:30;;;;;;;;;;;14.10;99.90;;;;;;5097698;28;19923;-59
2021/07/23 02:19:19;;;;;;;;;;;14.20;99.90;;;;;;5097975;28;19928;-59
2021/07/23 02:22:13;;;;;;;;;;;14.10;99.90;;;;;;5097446;28;20274;-59
2021/07/23 02:25:01;;;;;;;;;;;14.10;99.90;;;;;;5101111;28;19935;-59
2021/07/23 02:28:16;;;;;;;;;;;14.00;99.90;;;;;;5096085;28;20000;-58
2021/07/23 02:31:10;;;;;;;;;;;13.90;99.90;;;;;;5098140;27;19938;-62
2021/07/23 02:34:07;;;;;;;;;;;13.80;99.90;;;;;;5099902;28;19951;-60
2021/07/23 02:36:58;;;;;;;;;;;13.70;99.90;;;;;;5099023;28;20267;-59
2021/07/23 02:39:49;;;;;;;;;;;13.80;99.90;;;;;;5094438;28;19936;-59
2021/07/23 02:42:38;;;;;;;;;;;13.80;99.90;;;;;;5089546;28;19928;-58
2021/07/23 02:48:40;;;;;;;;;;;13.60;99.90;;;;;;5101955;28;20386;-58
2021/07/23 02:51:31;;;;;;;;;;;13.50;99.90;;;;;;5105246;28;19990;-59
2021/07/23 02:54:24;;;;;;;;;;;13.50;99.90;;;;;;5097133;28;20007;-58
2021/07/23 02:57:14;;;;;;;;;;;13.50;99.90;;;;;;5103470;28;19931;-58
2021/07/23 03:00:07;;;;;;;;;;;13.50;99.90;;;;;;5093228;28;19996;-60
2021/07/23 03:03:02;;;;;;;;;;;13.50;99.90;;;;;;5093150;28;19938;-59
2021/07/23 03:05:55;;;;;;;;;;;13.50;99.90;;;;;;5095076;28;19954;-59
2021/07/23 03:08:50;;;;;;;;;;;13.40;99.90;;;;;;5095606;28;20060;-59
2021/07/23 03:11:39;;;;;;;;;;;13.40;99.90;;;;;;5100507;28;20463;-58
2021/07/23 03:14:53;;;;;;;;;;;13.30;99.90;;;;;;5088807;28;19924;-60
2021/07/23 03:17:45;;;;;;;;;;;13.30;99.90;;;;;;5084722;28;20707;-58
2021/07/23 03:20:38;;;;;;;;;;;13.30;99.90;;;;;;5095566;28;19980;-61
2021/07/23 03:23:28;;;;;;;;;;;13.40;99.90;;;;;;5088397;28;20053;-59
2021/07/23 03:26:19;;;;;;;;;;;13.30;99.90;;;;;;5108131;28;20375;-58
2021/07/23 03:29:10;;;;;;;;;;;13.30;99.90;;;;;;5110600;28;19992;-58
2021/07/23 03:32:01;;;;;;;;;;;13.40;99.90;;;;;;5095439;28;20324;-58
2021/07/23 03:34:53;;;;;;;;;;;13.40;99.90;;;;;;5101897;28;19928;-61
2021/07/23 03:37:51;;;;;;;;;;;13.30;99.90;;;;;;5098758;28;19934;-58
2021/07/23 03:40:43;;;;;;;;;;;13.30;99.90;;;;;;5101607;28;19950;-58
2021/07/23 03:43:36;;;;;;;;;;;13.30;99.90;;;;;;5110876;28;20280;-58
2021/07/23 03:46:32;;;;;;;;;;;13.30;99.90;;;;;;5097870;28;19970;-57
2021/07/23 03:49:21;;;;;;;;;;;13.20;99.90;;;;;;5103050;28;20264;-58
2021/07/23 03:52:11;;;;;;;;;;;13.20;99.90;;;;;;5099237;28;19924;-59
2021/07/23 03:55:20;;;;;;;;;;;13.10;99.90;;;;;;5109977;28;19931;-58
2021/07/23 03:58:10;;;;;;;;;;;13.20;99.90;;;;;;5098179;28;20018;-58
2021/07/23 04:01:06;;;;;;;;;;;13.10;99.90;;;;;;5087821;28;19924;-58
2021/07/23 04:03:57;;;;;;;;;;;13.20;99.90;;;;;;5094109;28;19924;-58
2021/07/23 04:06:45;;;;;;;;;;;13.20;99.90;;;;;;5093499;28;20246;-58
2021/07/23 04:09:34;;;;;;;;;;;13.20;99.90;;;;;;5093037;28;19935;-58
2021/07/23 04:12:23;;;;;;;;;;;13.30;99.90;;;;;;5086936;28;20019;-59
2021/07/23 04:15:15;;;;;;;;;;;13.30;99.90;;;;;;5099495;28;20275;-58
2021/07/23 04:21:54;;;;;;;;;;;13.30;99.90;;;;;;5098443;28;19930;-57
2021/07/23 04:25:10;;;;;;;;;;;13.30;99.90;;;;;;5103786;28;19924;-58
2021/07/23 04:28:02;;;;;;;;;;;13.40;99.90;;;;;;5101628;28;20371;-58
2021/07/23 04:30:59;;;;;;;;;;;13.40;99.90;;;;;;5088282;28;19994;-58
2021/07/23 04:34:06;;;;;;;;;;;13.50;99.90;;;;;;5095851;28;20028;-59
2021/07/23 04:37:00;;;;;;;;;;;13.60;99.90;;;;;;5105249;28;20361;-59
2021/07/23 04:39:56;;;;;;;;;;;13.70;99.90;;;;;;5093288;28;20367;-59
2021/07/23 04:42:46;;;;;;;;;;;13.80;99.90;;;;;;5096658;28;20385;-59
2021/07/23 04:45:38;;;;;;;;;;;13.80;99.90;;;;;;5100951;28;20380;-59
2021/07/23 04:48:27;;;;;;;;;;;13.90;99.90;;;;;;5110450;28;19999;-59
2021/07/23 04:51:42;;;;;;;;;;;14.00;99.90;;;;;;5111256;28;19924;-59
2021/07/23 04:54:49;;;;;;;;;;;14.10;99.90;;;;;;5108391;28;19923;-59
2021/07/23 04:58:16;;;;;;;;;;;14.10;99.90;;;;;;5099295;28;20262;-59
2021/07/23 05:01:08;;;;;;;;;;;14.30;99.90;;;;;;5101541;28;20274;-59
2021/07/23 05:03:56;;;;;;;;;;;14.40;99.90;;;;;;5105786;28;19931;-59
2021/07/23 05:06:48;;;;;;;;;;;14.60;99.90;;;;;;5107240;28;19931;-59
2021/07/23 05:09:36;;;;;;;;;;;14.80;99.90;;;;;;5109334;28;19923;-59
2021/07/23 05:12:30;;;;;;;;;;;14.90;99.90;;;;;;5099300;28;19924;-59
2021/07/23 05:15:19;;;;;;;;;;;15.00;99.90;;;;;;5103732;28;20057;-59
2021/07/23 05:18:08;;;;;;;;;;;15.10;99.90;;;;;;5107055;28;20763;-58
2021/07/23 05:20:56;;;;;;;;;;;15.30;99.90;;;;;;5103988;28;19975;-59
2021/07/23 05:23:47;;;;;;;;;;;15.50;99.90;;;;;;5109891;28;20340;-59
2021/07/23 05:26:36;;;;;;;;;;;15.70;99.90;;;;;;5105113;28;19924;-58
2021/07/23 05:29:25;;;;;;;;;;;15.70;99.90;;;;;;5106973;28;20011;-59
2021/07/23 05:32:14;;;;;;;;;;;15.80;99.90;;;;;;5102332;28;20344;-58
2021/07/23 05:35:03;;;;;;;;;;;16.00;99.90;;;;;;5108781;28;19969;-59
2021/07/23 05:37:52;;;;;;;;;;;16.10;99.90;;;;;;5103874;28;20406;-60
2021/07/23 05:40:41;;;;;;;;;;;16.20;99.90;;;;;;5107723;28;19927;-59
2021/07/23 05:43:30;;;;;;;;;;;16.40;99.90;;;;;;5107665;28;20004;-59
2021/07/23 05:46:18;;;;;;;;;;;16.60;99.90;;;;;;5099053;28;20370;-59
2021/07/23 05:49:07;;;;;;;;;;;16.60;99.90;;;;;;5108255;28;19950;-59
2021/07/23 05:51:55;;;;;;;;;;;16.70;99.90;;;;;;5109146;28;20016;-59
2021/07/23 05:54:44;;;;;;;;;;;17.00;99.90;;;;;;5107292;28;19924;-59
2021/07/23 05:57:39;;;;;;;;;;;17.20;99.90;;;;;;5102561;28;19924;-59
2021/07/23 06:00:28;;;;;;;;;;;17.40;99.90;;;;;;5099976;28;20354;-59
2021/07/23 06:03:17;;;;;;;;;;;17.30;99.90;;;;;;5104962;28;20279;-58
2021/07/23 06:06:05;;;;;;;;;;;17.40;99.90;;;;;;5108454;28;19939;-58
2021/07/23 06:09:15;;;;;;;;;;;17.60;99.90;;;;;;5106280;28;20020;-57
2021/07/23 06:12:03;;;;;;;;;;;17.50;99.90;;;;;;5111282;28;19924;-58
2021/07/23 06:14:53;;;;;;;;;;;17.70;99.90;;;;;;5113703;28;20298;-61
2021/07/23 06:17:42;;;;;;;;;;;17.90;99.90;;;;;;5110462;28;19931;-57
2021/07/23 06:20:33;;;;;;;;;;;17.80;99.90;;;;;;5109569;28;19924;-57
2021/07/23 06:23:22;;;;;;;;;;;18.40;99.90;;;;;;5109042;28;19924;-58
2021/07/23 06:26:35;;;;;;;;;;;18.40;99.90;;;;;;5110043;28;20378;-61
2021/07/23 06:29:24;;;;;;;;;;;18.20;99.90;;;;;;5111094;28;19923;-58
2021/07/23 06:32:15;;;;;;;;;;;18.30;99.90;;;;;;5108010;28;19930;-58
2021/07/23 06:35:03;;;;;;;;;;;18.70;99.90;;;;;;5113100;28;20355;-58
2021/07/23 06:37:52;;;;;;;;;;;19.50;99.90;;;;;;5113365;28;19923;-58
2021/07/23 06:40:40;;;;;;;;;;;20.00;99.90;;;;;;5112075;28;20332;-60
2021/07/23 06:43:28;;;;;;;;;;;19.80;99.90;;;;;;5107725;28;19924;-57
2021/07/23 06:46:17;;;;;;;;;;;20.00;99.90;;;;;;5100333;28;19942;-58
2021/07/23 06:49:07;;;;;;;;;;;20.50;99.90;;;;;;5113086;28;19927;-58
2021/07/23 06:51:55;;;;;;;;;;;20.80;99.90;;;;;;5107992;28;19931;-59
2021/07/23 06:54:44;;;;;;;;;;;21.60;99.90;;;;;;5111670;28;20325;-58
2021/07/23 06:57:34;;;;;;;;;;;22.70;99.90;;;;;;5106079;28;19942;-60
2021/07/23 07:00:23;;;;;;;;;;;23.00;99.90;;;;;;5104564;28;21025;-58
2021/07/23 07:03:12;;;;;;;;;;;23.10;99.90;;;;;;5106006;28;19967;-58
2021/07/23 07:06:02;;;;;;;;;;;23.90;99.80;;;;;;5112687;28;19931;-59
2021/07/23 07:08:51;;;;;;;;;;;24.40;98.50;;;;;;5112855;28;20290;-59
2021/07/23 07:11:39;;;;;;;;;;;24.90;97.40;;;;;;5109551;28;19931;-59
2021/07/23 07:14:28;;;;;;;;;;;26.00;95.60;;;;;;5111992;28;19923;-58
2021/07/23 07:17:18;;;;;;;;;;;25.40;95.10;;;;;;5107833;28;19935;-58
2021/07/23 07:20:07;;;;;;;;;;;26.20;95.50;;;;;;5105519;28;19928;-58
2021/07/23 07:22:57;;;;;;;;;;;28.30;91.70;;;;;;5106551;28;19930;-61
2021/07/23 07:25:45;;;;;;;;;;;30.10;85.00;;;;;;5109396;28;19949;-59
2021/07/23 07:28:34;;;;;;;;;;;31.80;78.50;;;;;;5110949;28;19924;-59
2021/07/23 07:31:24;;;;;;;;;;;32.40;71.50;;;;;;5102249;28;20352;-60
2021/07/23 07:34:13;;;;;;;;;;;30.50;71.90;;;;;;5103288;28;20003;-62
2021/07/23 07:37:02;;;;;;;;;;;30.40;74.20;;;;;;5110852;28;19924;-59
2021/07/23 07:39:51;;;;;;;;;;;28.80;75.60;;;;;;5109912;28;19924;-59
2021/07/23 07:42:40;;;;;;;;;;;30.70;73.60;;;;;;5104665;28;19931;-59
2021/07/23 07:45:28;;;;;;;;;;;33.30;66.50;;;;;;5103544;28;19931;-59
2021/07/23 07:48:43;;;;;;;;;;;34.00;61.50;;;;;;5108656;28;19923;-59
2021/07/23 07:51:32;;;;;;;;;;;30.10;67.30;;;;;;5109447;28;20363;-60
2021/07/23 07:54:20;;;;;;;;;;;30.00;70.80;;;;;;5097903;28;20603;-59
2021/07/23 07:57:11;;;;;;;;;;;30.00;71.80;;;;;;5109859;28;19924;-59
2021/07/23 07:59:59;;;;;;;;;;;30.40;69.90;;;;;;5108799;28;19923;-59
2021/07/23 08:02:48;;;;;;;;;;;29.60;70.40;;;;;;5106053;28;19931;-59
2021/07/23 08:05:37;;;;;;;;;;;30.80;70.10;;;;;;5107953;28;20696;-59
2021/07/23 08:08:25;;;;;;;;;;;32.10;66.20;;;;;;5109868;28;20008;-60
2021/07/23 08:11:13;;;;;;;;;;;32.60;64.20;;;;;;5110258;28;20259;-59
2021/07/23 08:14:03;;;;;;;;;;;32.50;63.30;;;;;;5102208;28;19924;-59
2021/07/23 08:16:51;;;;;;;;;;;32.30;63.10;;;;;;5101964;28;20272;-60
2021/07/23 08:19:40;;;;;;;;;;;31.40;65.70;;;;;;5105446;28;20371;-59
2021/07/23 08:22:31;;;;;;;;;;;30.90;65.70;;;;;;5109594;28;20313;-59
2021/07/23 08:25:19;;;;;;;;;;;29.80;68.70;;;;;;5103820;28;20359;-61
2021/07/23 08:28:07;;;;;;;;;;;30.40;68.50;;;;;;5106350;28;19939;-59
2021/07/23 08:30:57;;;;;;;;;;;31.00;68.10;;;;;;5100579;28;20412;-59
2021/07/23 08:33:46;;;;;;;;;;;31.70;64.10;;;;;;5109766;28;19927;-59
2021/07/23 08:36:35;;;;;;;;;;;30.60;64.80;;;;;;5109630;28;20345;-59
2021/07/23 08:39:24;;;;;;;;;;;30.50;66.00;;;;;;5109959;28;19950;-59
2021/07/23 08:42:28;;;;;;;;;;;29.80;68.10;;;;;;5101398;28;19923;-60
2021/07/23 08:45:17;;;;;;;;;;;30.40;67.10;;;;;;5098995;28;20001;-59
2021/07/23 08:48:07;;;;;;;;;;;31.80;65.90;;;;;;5108975;28;19932;-58
2021/07/23 08:50:56;;;;;;;;;;;32.90;63.00;;;;;;5103515;28;20057;-59
2021/07/23 08:53:45;;;;;;;;;;;33.10;58.80;;;;;;5100509;28;19932;-60
2021/07/23 08:56:34;;;;;;;;;;;31.50;59.90;;;;;;5100097;28;19974;-58
2021/07/23 08:59:22;;;;;;;;;;;30.90;63.60;;;;;;5105460;28;20267;-60
2021/07/23 09:02:12;;;;;;;;;;;33.00;61.20;;;;;;5096415;28;19950;-59
2021/07/23 09:08:25;;;;;;;;;;;35.80;52.80;;;;;;5103173;28;20303;-60
2021/07/23 09:11:14;;;;;;;;;;;34.80;52.60;;;;;;5106602;28;19924;-61
2021/07/23 09:14:12;;;;;;;;;;;33.70;54.50;;;;;;5107951;28;19924;-60
2021/07/23 09:17:00;;;;;;;;;;;31.30;58.10;;;;;;5103090;28;19924;-60
2021/07/23 09:20:01;;;;;;;;;;;32.20;58.10;;;;;;5104650;28;20035;-60
2021/07/23 09:22:52;;;;;;;;;;;31.60;59.40;;;;;;5108829;28;19930;-60
2021/07/23 09:25:41;;;;;;;;;;;32.50;56.60;;;;;;5107504;28;20031;-60
2021/07/23 09:28:31;;;;;;;;;;;33.00;55.80;;;;;;5104214;28;19931;-61
2021/07/23 09:31:20;;;;;;;;;;;32.60;57.20;;;;;;5102239;28;19924;-60
2021/07/23 09:34:12;;;;;;;;;;;32.80;55.00;;;;;;5101860;28;19997;-59
2021/07/23 09:37:08;;;;;;;;;;;31.20;58.40;;;;;;5108726;28;19927;-62
2021/07/23 09:40:14;;;;;;;;;;;29.50;61.00;;;;;;5105524;28;19924;-60
2021/07/23 09:43:03;;;;;;;;;;;28.20;64.70;;;;;;5109358;28;19923;-60
2021/07/23 09:45:52;;;;;;;;;;;28.10;66.00;;;;;;5101757;28;19923;-60
2021/07/23 09:48:41;;;;;;;;;;;27.80;66.10;;;;;;5109474;28;20317;-60
2021/07/23 09:51:29;;;;;;;;;;;28.40;67.10;;;;;;5112481;28;20049;-59
2021/07/23 09:54:19;;;;;;;;;;;28.70;65.30;;;;;;5096905;28;19955;-60
2021/07/23 09:57:10;;;;;;;;;;;28.50;67.90;;;;;;5110836;28;19935;-59
2021/07/23 10:00:02;;;;;;;;;;;28.50;67.10;;;;;;5106976;28;19967;-59
2021/07/23 10:02:53;;;;;;;;;;;28.70;69.00;;;;;;5112950;27;19924;-59
2021/07/23 10:05:44;;;;;;;;;;;28.70;67.70;;;;;;5107502;28;19935;-60
2021/07/23 10:08:34;;;;;;;;;;;28.80;69.30;;;;;;5106338;28;19977;-60
2021/07/23 10:11:24;;;;;;;;;;;28.70;67.30;;;;;;5111251;28;19924;-60
2021/07/23 10:14:17;;;;;;;;;;;28.40;65.40;;;;;;5110308;28;19924;-60
2021/07/23 10:17:08;;;;;;;;;;;28.10;68.20;;;;;;5105198;28;19924;-59
2021/07/23 10:19:57;;;;;;;;;;;28.20;67.60;;;;;;5112376;28;19924;-59
2021/07/23 10:22:46;;;;;;;;;;;27.60;66.50;;;;;;5107946;28;19923;-59
2021/07/23 10:25:36;;;;;;;;;;;27.80;66.80;;;;;;5101944;28;19930;-60
2021/07/23 10:28:43;;;;;;;;;;;29.50;65.10;;;;;;5099402;28;19947;-59
2021/07/23 10:31:44;;;;;;;;;;;28.90;64.30;;;;;;5099837;28;19924;-60
2021/07/23 10:34:33;;;;;;;;;;;28.70;69.00;;;;;;5108423;28;19963;-60
2021/07/23 10:37:38;;;;;;;;;;;28.90;66.90;;;;;;5099572;28;19947;-60
2021/07/23 10:40:40;;;;;;;;;;;28.20;67.70;;;;;;5102045;28;19924;-59
2021/07/23 10:43:36;;;;;;;;;;;28.60;66.90;;;;;;5107969;28;20016;-59
2021/07/23 10:46:40;;;;;;;;;;;28.50;66.60;;;;;;5106270;28;20299;-59
2021/07/23 10:49:47;;;;;;;;;;;28.20;69.30;;;;;;5108898;28;20422;-59
2021/07/23 10:52:37;;;;;;;;;;;27.70;69.20;;;;;;5104319;28;19924;-59
2021/07/23 10:55:27;;;;;;;;;;;28.40;71.00;;;;;;5105723;28;19934;-59
2021/07/23 10:58:32;;;;;;;;;;;27.80;69.10;;;;;;5096711;28;20240;-59
2021/07/23 11:01:42;;;;;;;;;;;27.10;72.30;;;;;;5100827;28;19928;-59
2021/07/23 11:04:32;;;;;;;;;;;27.10;73.90;;;;;;5123721;27;19927;-60
2021/07/23 11:07:25;;;;;;;;;;;27.20;73.70;;;;;;5126033;27;19927;-60
2021/07/23 11:10:20;;;;;;;;;;;27.40;73.70;;;;;;5127360;27;19923;-60
2021/07/23 11:13:10;;;;;;;;;;;27.60;73.50;;;;;;5124566;27;19924;-59
2021/07/23 11:16:14;;;;;;;;;;;27.70;70.70;;;;;;5118601;27;20377;-60
2021/07/23 11:19:02;;;;;;;;;;;27.80;70.10;;;;;;5123002;27;19993;-59
2021/07/23 11:21:51;;;;;;;;;;;27.80;73.10;;;;;;5124370;27;19924;-59
2021/07/23 11:24:41;;;;;;;;;;;28.10;71.00;;;;;;5109751;27;19936;-59
2021/07/23 11:27:30;;;;;;;;;;;28.60;70.30;;;;;;5105786;28;19936;-60
2021/07/23 11:30:20;;;;;;;;;;;29.10;66.90;;;;;;5098590;28;20282;-59
2021/07/23 11:33:09;;;;;;;;;;;29.10;67.80;;;;;;5117802;28;19935;-60
2021/07/23 11:35:58;;;;;;;;;;;29.20;69.10;;;;;;5115106;28;20051;-59
2021/07/23 11:39:01;;;;;;;;;;;28.50;69.00;;;;;;5115855;28;19930;-60
2021/07/23 11:42:01;;;;;;;;;;;27.10;70.90;;;;;;5113881;28;19928;-60
2021/07/23 11:44:53;;;;;;;;;;;26.70;75.80;;;;;;5115131;28;20389;-59
2021/07/23 11:47:42;;;;;;;;;;;26.40;73.40;;;;;;5111718;28;19996;-59
2021/07/23 11:50:31;;;;;;;;;;;26.60;76.50;;;;;;5108885;28;19928;-60
2021/07/23 11:53:20;;;;;;;;;;;27.00;75.00;;;;;;5106100;28;19932;-59
2021/07/23 11:56:08;;;;;;;;;;;26.80;73.40;;;;;;5106431;28;19928;-59
2021/07/23 11:58:58;;;;;;;;;;;27.10;74.20;;;;;;5106678;28;19931;-59
2021/07/23 12:01:47;;;;;;;;;;;27.30;72.60;;;;;;5102084;28;20581;-60
2021/07/23 12:04:39;;;;;;;;;;;27.40;72.40;;;;;;5102608;28;19923;-59
2021/07/23 12:07:58;;;;;;;;;;;27.70;72.30;;;;;;5101779;28;20014;-59
2021/07/23 12:10:47;;;;;;;;;;;27.00;75.00;;;;;;5106788;28;19943;-62
2021/07/23 12:13:36;;;;;;;;;;;26.80;75.20;;;;;;5104416;28;19924;-60
2021/07/23 12:16:26;;;;;;;;;;;27.20;74.30;;;;;;5102322;27;20060;-58
2021/07/23 12:19:17;;;;;;;;;;;27.60;73.40;;;;;;5108958;28;19924;-59
2021/07/23 12:22:10;;;;;;;;;;;28.10;71.90;;;;;;5106610;28;20390;-59
2021/07/23 12:24:58;;;;;;;;;;;28.10;71.30;;;;;;5107211;28;19951;-59
2021/07/23 12:27:47;;;;;;;;;;;28.30;71.50;;;;;;5108742;28;20010;-60
2021/07/23 12:30:36;;;;;;;;;;;28.30;71.90;;;;;;5103072;28;20263;-59
2021/07/23 12:33:28;;;;;;;;;;;28.20;71.00;;;;;;5109078;28;19950;-59
2021/07/23 12:36:25;;;;;;;;;;;27.90;72.80;;;;;;5105827;28;19923;-59
2021/07/23 12:39:14;;;;;;;;;;;28.10;72.10;;;;;;5108414;28;19938;-59
2021/07/23 12:42:16;;;;;;;;;;;27.80;72.40;;;;;;5107454;28;19931;-59
2021/07/23 12:45:04;;;;;;;;;;;28.10;73.30;;;;;;5102311;28;19936;-59
2021/07/23 12:47:53;;;;;;;;;;;28.00;71.10;;;;;;5105009;28;20235;-59
2021/07/23 12:50:45;;;;;;;;;;;28.20;72.40;;;;;;5102634;28;20035;-60
2021/07/23 12:53:34;;;;;;;;;;;28.30;71.50;;;;;;5113182;27;20438;-60
2021/07/23 12:56:29;;;;;;;;;;;28.40;71.10;;;;;;5122812;27;19942;-59
2021/07/23 12:59:25;;;;;;;;;;;28.60;70.30;;;;;;5118801;27;20263;-59
2021/07/23 13:02:14;;;;;;;;;;;28.70;70.00;;;;;;5112025;27;19931;-59
2021/07/23 13:05:03;;;;;;;;;;;29.00;69.50;;;;;;5118990;27;19927;-59
2021/07/23 13:07:53;;;;;;;;;;;28.80;67.70;;;;;;5107948;28;19928;-59
2021/07/23 13:10:41;;;;;;;;;;;28.90;68.40;;;;;;5110439;28;19923;-60
2021/07/23 13:13:30;;;;;;;;;;;28.60;68.60;;;;;;5110206;28;19924;-59
2021/07/23 13:16:19;;;;;;;;;;;28.30;69.30;;;;;;5106866;28;19924;-60
2021/07/23 13:19:08;;;;;;;;;;;28.20;70.10;;;;;;5105736;28;19924;-60
2021/07/23 13:21:57;;;;;;;;;;;27.60;69.50;;;;;;5107867;28;20018;-60
2021/07/23 13:24:47;;;;;;;;;;;27.60;72.10;;;;;;5109619;28;19924;-60
2021/07/23 13:27:35;;;;;;;;;;;27.20;72.00;;;;;;5109106;28;19931;-59
2021/07/23 13:30:24;;;;;;;;;;;27.50;73.00;;;;;;5104032;28;19939;-59
2021/07/23 13:33:12;;;;;;;;;;;27.80;70.90;;;;;;5107163;28;20022;-60
2021/07/23 13:36:04;;;;;;;;;;;27.80;70.60;;;;;;5111786;28;19947;-59
2021/07/23 13:38:59;;;;;;;;;;;28.00;71.90;;;;;;5108169;28;19924;-59
2021/07/23 13:41:51;;;;;;;;;;;28.30;71.00;;;;;;5110915;28;20041;-60
2021/07/23 13:44:39;;;;;;;;;;;28.40;68.30;;;;;;5095167;28;19932;-60
2021/07/23 13:47:28;;;;;;;;;;;28.50;68.90;;;;;;5094038;28;19986;-60
2021/07/23 13:50:17;;;;;;;;;;;28.70;70.40;;;;;;5112369;28;20007;-59
2021/07/23 13:53:06;;;;;;;;;;;28.70;69.70;;;;;;5120379;27;19923;-62
2021/07/23 13:56:16;;;;;;;;;;;28.00;69.20;;;;;;5124712;27;19979;-59
2021/07/23 13:59:31;;;;;;;;;;;27.80;71.30;;;;;;5106350;28;20543;-60
2021/07/23 14:02:20;;;;;;;;;;;27.80;72.20;;;;;;5100954;28;20064;-60
2021/07/23 14:05:10;;;;;;;;;;;27.90;71.10;;;;;;5108584;28;19924;-60
2021/07/23 14:07:58;;;;;;;;;;;27.60;70.90;;;;;;5100977;28;19924;-60
2021/07/23 14:10:47;;;;;;;;;;;27.30;70.90;;;;;;5107440;28;19924;-60
2021/07/23 14:13:36;;;;;;;;;;;27.10;70.60;;;;;;5107022;28;19954;-60
2021/07/23 14:16:26;;;;;;;;;;;27.10;71.00;;;;;;5097135;28;19931;-60
2021/07/23 14:19:15;;;;;;;;;;;27.20;73.30;;;;;;5109328;28;19950;-61
2021/07/23 14:22:04;;;;;;;;;;;27.60;73.60;;;;;;5106598;28;19924;-60
2021/07/23 14:24:52;;;;;;;;;;;28.10;72.70;;;;;;5107022;28;19938;-60
2021/07/23 14:27:41;;;;;;;;;;;28.20;70.60;;;;;;5105336;27;20370;-60
2021/07/23 14:30:29;;;;;;;;;;;28.30;71.20;;;;;;5099667;28;19924;-59
2021/07/23 14:33:20;;;;;;;;;;;28.70;71.80;;;;;;5101540;28;19935;-59
2021/07/23 14:36:09;;;;;;;;;;;29.10;70.90;;;;;;5103460;28;19923;-59
2021/07/23 14:38:58;;;;;;;;;;;29.40;69.10;;;;;;5103588;28;19924;-59
2021/07/23 14:41:46;;;;;;;;;;;29.00;68.60;;;;;;5108259;28;19924;-59
2021/07/23 14:44:35;;;;;;;;;;;28.30;68.50;;;;;;5104100;28;19924;-59
2021/07/23 14:47:24;;;;;;;;;;;27.90;69.70;;;;;;5099853;28;20050;-59
2021/07/23 14:50:15;;;;;;;;;;;27.60;70.90;;;;;;5107394;28;19934;-60
2021/07/23 14:53:03;;;;;;;;;;;27.70;70.00;;;;;;5106013;28;19928;-59
2021/07/23 14:55:51;;;;;;;;;;;27.70;71.30;;;;;;5106435;28;19935;-60
2021/07/23 14:58:40;;;;;;;;;;;27.80;70.40;;;;;;5104276;28;19928;-60
2021/07/23 15:01:29;;;;;;;;;;;27.90;73.00;;;;;;5099920;27;19924;-59
2021/07/23 15:04:17;;;;;;;;;;;27.90;72.40;;;;;;5110163;28;20009;-60
2021/07/23 15:07:07;;;;;;;;;;;27.70;70.60;;;;;;5108011;28;19924;-59
2021/07/23 15:09:56;;;;;;;;;;;27.60;69.70;;;;;;5103884;28;19959;-59
2021/07/23 15:12:45;;;;;;;;;;;27.60;70.10;;;;;;5108444;28;19924;-60
2021/07/23 15:15:33;;;;;;;;;;;27.70;70.50;;;;;;5099282;28;20323;-61
2021/07/23 15:18:24;;;;;;;;;;;27.70;72.30;;;;;;5114399;28;19925;-60
2021/07/23 15:21:13;;;;;;;;;;;27.90;69.70;;;;;;5119735;28;20410;-61
2021/07/23 15:24:03;;;;;;;;;;;28.20;69.80;;;;;;5114743;28;19924;-60
2021/07/23 15:26:52;;;;;;;;;;;28.10;70.50;;;;;;5110623;28;19999;-60
2021/07/23 15:29:41;;;;;;;;;;;27.80;69.20;;;;;;5116274;28;19924;-60
2021/07/23 15:32:30;;;;;;;;;;;27.90;69.40;;;;;;5117701;28;19950;-60
2021/07/23 15:35:21;;;;;;;;;;;27.90;69.20;;;;;;5117066;28;19932;-59
2021/07/23 15:38:10;;;;;;;;;;;27.70;69.60;;;;;;5116137;28;19957;-60
2021/07/23 15:41:00;;;;;;;;;;;27.50;69.70;;;;;;5111963;28;19935;-60
2021/07/23 15:43:49;;;;;;;;;;;27.60;70.20;;;;;;5113302;28;19950;-60
2021/07/23 15:47:02;;;;;;;;;;;27.90;71.40;;;;;;5114669;28;19928;-62
2021/07/23 15:49:51;;;;;;;;;;;28.00;70.30;;;;;;5122287;28;19923;-60
2021/07/23 15:52:40;;;;;;;;;;;28.10;69.30;;;;;;5113568;28;19923;-60
2021/07/23 15:55:54;;;;;;;;;;;28.00;69.30;;;;;;5127835;28;19928;-60
2021/07/23 15:58:44;;;;;;;;;;;28.10;70.10;;;;;;5119571;28;20424;-61
2021/07/23 16:01:34;;;;;;;;;;;28.00;69.20;;;;;;5125391;28;19965;-61
2021/07/23 16:04:23;;;;;;;;;;;27.90;68.90;;;;;;5123223;28;19967;-61
2021/07/23 16:07:12;;;;;;;;;;;28.10;69.80;;;;;;5122327;28;20047;-60
2021/07/23 16:10:00;;;;;;;;;;;28.20;69.60;;;;;;5104596;28;19934;-59
2021/07/23 16:12:48;;;;;;;;;;;28.10;68.70;;;;;;5094092;28;19936;-60
2021/07/23 16:15:39;;;;;;;;;;;28.10;69.30;;;;;;5099386;28;19963;-60
2021/07/23 16:18:28;;;;;;;;;;;27.90;70.70;;;;;;5100867;28;19932;-59
2021/07/23 16:21:24;;;;;;;;;;;27.90;69.70;;;;;;5100400;28;19990;-59
2021/07/23 16:24:15;;;;;;;;;;;27.70;70.00;;;;;;5104377;28;19927;-60
2021/07/23 16:27:04;;;;;;;;;;;28.00;70.00;;;;;;5104309;28;19933;-60
2021/07/23 16:29:53;;;;;;;;;;;28.00;69.60;;;;;;5102758;28;19931;-60
2021/07/23 16:32:43;;;;;;;;;;;27.90;69.00;;;;;;5096800;28;19931;-59
2021/07/23 16:35:32;;;;;;;;;;;27.80;70.20;;;;;;5102700;28;19951;-59
2021/07/23 16:38:21;;;;;;;;;;;27.80;70.40;;;;;;5096123;28;19951;-60
2021/07/23 16:41:09;;;;;;;;;;;27.60;69.80;;;;;;5099662;28;19965;-60
2021/07/23 16:43:58;;;;;;;;;;;27.70;70.70;;;;;;5099192;28;19930;-60
2021/07/23 16:46:46;;;;;;;;;;;27.70;70.20;;;;;;5100254;28;20003;-60
2021/07/23 16:49:37;;;;;;;;;;;27.70;70.10;;;;;;5101869;28;20400;-60